sensor_id;sensor_type;location;lat;lon;timestamp;pressure;altitude;pressure_sealevel;temperature;humidity
48846;BME280;34665;51.886;5.436;2023-02-28T00:00:11;102972.16;;;9.54;64.02
48846;BME280;34665;51.886;5.436;2023-02-28T00:02:37;102978.28;;;9.76;64.06
48846;BME280;34665;51.886;5.436;2023-02-28T00:05:05;102966.44;;;9.69;64.53
48846;BME280;34665;51.886;5.436;2023-02-28T00:07:31;102969.53;;;9.64;64.43
48846;BME280;34665;51.886;5.436;2023-02-28T00:09:57;102965.34;;;9.81;64.40
48846;BME280;34665;51.886;5.436;2023-02-28T00:12:23;102973.47;;;9.80;64.42
48846;BME280;34665;51.886;5.436;2023-02-28T00:14:49;102969.84;;;9.81;64.35
48846;BME280;34665;51.886;5.436;2023-02-28T00:17:14;102965.75;;;9.86;64.37
48846;BME280;34665;51.886;5.436;2023-02-28T00:19:41;102972.69;;;9.99;63.72
48846;BME280;34665;51.886;5.436;2023-02-28T00:22:06;102974.38;;;10.00;63.68
48846;BME280;34665;51.886;5.436;2023-02-28T00:24:32;102970.81;;;9.80;64.05
48846;BME280;34665;51.886;5.436;2023-02-28T00:26:57;102976.16;;;9.80;64.90
48846;BME280;34665;51.886;5.436;2023-02-28T00:29:23;102971.53;;;9.82;64.67
48846;BME280;34665;51.886;5.436;2023-02-28T00:31:48;102964.66;;;9.99;64.39
48846;BME280;34665;51.886;5.436;2023-02-28T00:34:14;102965.94;;;9.95;65.07
48846;BME280;34665;51.886;5.436;2023-02-28T00:36:40;102964.78;;;10.07;64.46
48846;BME280;34665;51.886;5.436;2023-02-28T00:39:09;102972.13;;;10.25;64.17
48846;BME280;34665;51.886;5.436;2023-02-28T00:41:34;102968.19;;;10.29;63.84
48846;BME280;34665;51.886;5.436;2023-02-28T00:44:00;102967.34;;;10.28;63.52
48846;BME280;34665;51.886;5.436;2023-02-28T00:46:25;102961.44;;;10.25;63.92
48846;BME280;34665;51.886;5.436;2023-02-28T00:48:51;102962.13;;;10.27;63.82
48846;BME280;34665;51.886;5.436;2023-02-28T00:51:16;102966.38;;;10.39;63.06
48846;BME280;34665;51.886;5.436;2023-02-28T00:53:42;102959.03;;;10.31;63.51
48846;BME280;34665;51.886;5.436;2023-02-28T00:56:07;102959.06;;;10.41;63.42
48846;BME280;34665;51.886;5.436;2023-02-28T00:58:33;102961.84;;;10.40;63.13
48846;BME280;34665;51.886;5.436;2023-02-28T01:00:58;102962.44;;;10.43;63.05
48846;BME280;34665;51.886;5.436;2023-02-28T01:03:24;102959.06;;;10.51;62.53
48846;BME280;34665;51.886;5.436;2023-02-28T01:05:50;102957.34;;;10.60;62.51
48846;BME280;34665;51.886;5.436;2023-02-28T01:08:16;102965.09;;;10.63;62.39
48846;BME280;34665;51.886;5.436;2023-02-28T01:10:42;102961.44;;;10.64;62.48
48846;BME280;34665;51.886;5.436;2023-02-28T01:13:07;102964.84;;;10.46;62.93
48846;BME280;34665;51.886;5.436;2023-02-28T01:15:36;102962.56;;;10.52;63.01
48846;BME280;34665;51.886;5.436;2023-02-28T01:18:01;102967.34;;;10.48;63.09
48846;BME280;34665;51.886;5.436;2023-02-28T01:20:27;102968.78;;;10.62;63.33
48846;BME280;34665;51.886;5.436;2023-02-28T01:22:53;102965.09;;;10.63;62.80
48846;BME280;34665;51.886;5.436;2023-02-28T01:25:18;102965.63;;;10.67;62.90
48846;BME280;34665;51.886;5.436;2023-02-28T01:27:44;102971.56;;;10.60;63.16
48846;BME280;34665;51.886;5.436;2023-02-28T01:30:10;102970.19;;;10.56;63.22
48846;BME280;34665;51.886;5.436;2023-02-28T01:32:36;102965.81;;;10.65;63.42
48846;BME280;34665;51.886;5.436;2023-02-28T01:35:02;102961.97;;;10.68;63.16
48846;BME280;34665;51.886;5.436;2023-02-28T01:37:28;102968.78;;;10.62;63.47
48846;BME280;34665;51.886;5.436;2023-02-28T01:39:54;102965.66;;;10.57;63.82
48846;BME280;34665;51.886;5.436;2023-02-28T01:42:19;102957.34;;;10.60;63.67
48846;BME280;34665;51.886;5.436;2023-02-28T01:47:27;102969.19;;;10.47;64.54
48846;BME280;34665;51.886;5.436;2023-02-28T01:49:56;102968.78;;;10.52;64.66
48846;BME280;34665;51.886;5.436;2023-02-28T01:52:23;102969.91;;;10.50;64.73
48846;BME280;34665;51.886;5.436;2023-02-28T01:54:55;102967.91;;;10.52;64.61
48846;BME280;34665;51.886;5.436;2023-02-28T01:57:25;102965.66;;;10.57;64.58
48846;BME280;34665;51.886;5.436;2023-02-28T01:59:57;102957.34;;;10.60;64.64
48846;BME280;34665;51.886;5.436;2023-02-28T02:02:26;102963.53;;;10.60;64.58
48846;BME280;34665;51.886;5.436;2023-02-28T02:05:20;102959.38;;;10.96;63.85
48846;BME280;34665;51.886;5.436;2023-02-28T02:07:49;102954.06;;;10.86;63.92
48846;BME280;34665;51.886;5.436;2023-02-28T02:10:19;102954.81;;;11.16;62.89
48846;BME280;34665;51.886;5.436;2023-02-28T02:23:37;102953.09;;;11.15;63.10
48846;BME280;34665;51.886;5.436;2023-02-28T02:26:21;102945.88;;;11.25;62.89
48846;BME280;34665;51.886;5.436;2023-02-28T02:31:48;102947.97;;;11.31;62.58
48846;BME280;34665;51.886;5.436;2023-02-28T02:37:24;102947.53;;;10.98;63.20
48846;BME280;34665;51.886;5.436;2023-02-28T02:40:02;102948.38;;;10.99;63.39
48846;BME280;34665;51.886;5.436;2023-02-28T02:43:16;102947.31;;;11.19;62.75
48846;BME280;34665;51.886;5.436;2023-02-28T02:45:33;102948.16;;;11.20;62.63
48846;BME280;34665;51.886;5.436;2023-02-28T02:48:04;102953.06;;;11.25;62.45
48846;BME280;34665;51.886;5.436;2023-02-28T02:50:38;102957.53;;;11.34;62.34
48846;BME280;34665;51.886;5.436;2023-02-28T02:53:06;102954.81;;;11.16;62.38
48846;BME280;34665;51.886;5.436;2023-02-28T02:55:38;102950.66;;;11.31;62.50
48846;BME280;34665;51.886;5.436;2023-02-28T02:58:17;102953.47;;;11.30;62.52
48846;BME280;34665;51.886;5.436;2023-02-28T03:00:52;102957.00;;;11.30;62.32
48846;BME280;34665;51.886;5.436;2023-02-28T03:03:20;102960.13;;;11.26;62.06
48846;BME280;34665;51.886;5.436;2023-02-28T03:05:59;102954.75;;;11.26;62.37
48846;BME280;34665;51.886;5.436;2023-02-28T03:08:27;102953.75;;;11.27;62.46
48846;BME280;34665;51.886;5.436;2023-02-28T03:11:00;102951.47;;;11.32;62.05
48846;BME280;34665;51.886;5.436;2023-02-28T03:16:32;102951.91;;;11.27;62.04
48846;BME280;34665;51.886;5.436;2023-02-28T03:24:29;102957.88;;;10.73;63.34
48846;BME280;34665;51.886;5.436;2023-02-28T03:27:07;102957.34;;;10.60;64.23
48846;BME280;34665;51.886;5.436;2023-02-28T03:29:39;102962.56;;;10.61;64.32
48846;BME280;34665;51.886;5.436;2023-02-28T03:32:21;102967.09;;;10.51;64.66
48846;BME280;34665;51.886;5.436;2023-02-28T03:34:58;102958.06;;;10.62;64.62
48846;BME280;34665;51.886;5.436;2023-02-28T03:37:26;102961.16;;;10.57;64.74
48846;BME280;34665;51.886;5.436;2023-02-28T03:40:02;102963.13;;;10.55;65.22
48846;BME280;34665;51.886;5.436;2023-02-28T03:42:35;102963.69;;;10.49;65.88
48846;BME280;34665;51.886;5.436;2023-02-28T03:45:10;102959.63;;;10.45;65.73
48846;BME280;34665;51.886;5.436;2023-02-28T03:50:25;102969.03;;;10.29;66.76
48846;BME280;34665;51.886;5.436;2023-02-28T03:52:54;102966.91;;;10.33;66.60
48846;BME280;34665;51.886;5.436;2023-02-28T03:55:29;102964.97;;;10.45;66.06
48846;BME280;34665;51.886;5.436;2023-02-28T03:58:28;102960.88;;;10.51;65.67
48846;BME280;34665;51.886;5.436;2023-02-28T04:01:00;102964.97;;;10.45;65.34
48846;BME280;34665;51.886;5.436;2023-02-28T04:03:37;102964.53;;;10.30;65.68
48846;BME280;34665;51.886;5.436;2023-02-28T04:06:04;102956.38;;;10.51;64.96
48846;BME280;34665;51.886;5.436;2023-02-28T04:08:31;102966.53;;;10.47;64.27
48846;BME280;34665;51.886;5.436;2023-02-28T04:11:01;102974.13;;;10.52;63.74
48846;BME280;34665;51.886;5.436;2023-02-28T04:13:29;102971.59;;;10.51;63.58
48846;BME280;34665;51.886;5.436;2023-02-28T04:15:54;102973.84;;;10.45;63.13
48846;BME280;34665;51.886;5.436;2023-02-28T04:18:20;102977.50;;;10.54;63.08
48846;BME280;34665;51.886;5.436;2023-02-28T04:20:45;102974.50;;;10.38;62.83
48846;BME280;34665;51.886;5.436;2023-02-28T04:23:11;102976.22;;;10.49;62.15
48846;BME280;34665;51.886;5.436;2023-02-28T04:25:36;102984.13;;;10.40;61.86
48846;BME280;34665;51.886;5.436;2023-02-28T04:28:02;102978.78;;;10.40;61.29
48846;BME280;34665;51.886;5.436;2023-02-28T04:30:27;102967.78;;;10.24;60.71
48846;BME280;34665;51.886;5.436;2023-02-28T04:32:54;102979.03;;;10.47;60.07
48846;BME280;34665;51.886;5.436;2023-02-28T04:35:20;102977.19;;;10.38;60.23
48846;BME280;34665;51.886;5.436;2023-02-28T04:37:45;102981.13;;;10.14;59.54
48846;BME280;34665;51.886;5.436;2023-02-28T04:40:11;102973.66;;;9.98;59.24
48846;BME280;34665;51.886;5.436;2023-02-28T04:42:36;102979.88;;;10.18;58.66
48846;BME280;34665;51.886;5.436;2023-02-28T04:45:02;102971.28;;;10.24;58.38
48846;BME280;34665;51.886;5.436;2023-02-28T04:47:28;102979.75;;;10.29;57.77
48846;BME280;34665;51.886;5.436;2023-02-28T04:49:54;102981.69;;;10.37;57.27
48846;BME280;34665;51.886;5.436;2023-02-28T04:52:19;102984.53;;;10.45;57.05
48846;BME280;34665;51.886;5.436;2023-02-28T04:54:45;102978.63;;;10.52;57.21
48846;BME280;34665;51.886;5.436;2023-02-28T04:57:10;102982.56;;;10.57;56.47
48846;BME280;34665;51.886;5.436;2023-02-28T04:59:36;102988.19;;;10.64;56.05
48846;BME280;34665;51.886;5.436;2023-02-28T05:02:01;102978.91;;;10.49;56.27
48846;BME280;34665;51.886;5.436;2023-02-28T05:04:33;102977.50;;;10.64;56.07
48846;BME280;34665;51.886;5.436;2023-02-28T05:07:01;102987.91;;;10.67;55.65
48846;BME280;34665;51.886;5.436;2023-02-28T05:09:27;102985.63;;;10.72;55.67
48846;BME280;34665;51.886;5.436;2023-02-28T05:11:54;102986.75;;;10.70;55.68
48846;BME280;34665;51.886;5.436;2023-02-28T05:14:20;102984.53;;;10.65;55.81
48846;BME280;34665;51.886;5.436;2023-02-28T05:16:45;102986.22;;;10.66;55.54
48846;BME280;34665;51.886;5.436;2023-02-28T05:19:11;102989.88;;;10.65;55.75
48846;BME280;34665;51.886;5.436;2023-02-28T05:21:41;102973.38;;;10.60;55.49
48846;BME280;34665;51.886;5.436;2023-02-28T05:24:13;102981.59;;;10.49;55.55
48846;BME280;34665;51.886;5.436;2023-02-28T05:26:42;102975.66;;;10.45;55.81
48846;BME280;34665;51.886;5.436;2023-02-28T05:29:09;102971.84;;;10.57;55.94
48846;BME280;34665;51.886;5.436;2023-02-28T05:31:35;102975.50;;;10.66;55.87
48846;BME280;34665;51.886;5.436;2023-02-28T05:34:01;102968.19;;;10.68;55.82
48846;BME280;34665;51.886;5.436;2023-02-28T05:36:27;102963.66;;;10.69;56.13
48846;BME280;34665;51.886;5.436;2023-02-28T05:38:53;102967.59;;;10.74;56.07
48846;BME280;34665;51.886;5.436;2023-02-28T05:41:19;102971.81;;;10.87;55.79
48846;BME280;34665;51.886;5.436;2023-02-28T05:43:45;102978.88;;;10.68;56.19
48846;BME280;34665;51.886;5.436;2023-02-28T05:46:12;102982.16;;;10.62;56.47
48846;BME280;34665;51.886;5.436;2023-02-28T05:48:39;102978.47;;;10.63;56.53
48846;BME280;34665;51.886;5.436;2023-02-28T05:51:05;102968.34;;;10.47;56.98
48846;BME280;34665;51.886;5.436;2023-02-28T05:53:32;102963.44;;;10.52;57.16
48846;BME280;34665;51.886;5.436;2023-02-28T05:55:58;102970.19;;;10.56;57.06
48846;BME280;34665;51.886;5.436;2023-02-28T05:58:23;102980.00;;;10.56;57.33
48846;BME280;34665;51.886;5.436;2023-02-28T06:00:51;102990.31;;;10.60;57.17
48846;BME280;34665;51.886;5.436;2023-02-28T06:03:16;102985.06;;;10.59;57.25
48846;BME280;34665;51.886;5.436;2023-02-28T06:05:42;102985.66;;;10.53;57.64
48846;BME280;34665;51.886;5.436;2023-02-28T06:08:07;102993.69;;;10.53;57.42
48846;BME280;34665;51.886;5.436;2023-02-28T06:10:34;102990.72;;;10.56;57.55
48846;BME280;34665;51.886;5.436;2023-02-28T06:13:02;102980.88;;;10.56;57.98
48846;BME280;34665;51.886;5.436;2023-02-28T06:15:28;102981.41;;;10.60;58.08
48846;BME280;34665;51.886;5.436;2023-02-28T06:17:54;102976.34;;;10.57;58.03
48846;BME280;34665;51.886;5.436;2023-02-28T06:20:22;102974.13;;;10.52;58.18
48846;BME280;34665;51.886;5.436;2023-02-28T06:22:48;102967.78;;;10.53;58.42
48846;BME280;34665;51.886;5.436;2023-02-28T06:25:13;102976.63;;;10.54;58.31
48846;BME280;34665;51.886;5.436;2023-02-28T06:27:39;102976.22;;;10.49;58.44
48846;BME280;34665;51.886;5.436;2023-02-28T06:30:04;102972.00;;;10.56;58.57
48846;BME280;34665;51.886;5.436;2023-02-28T06:32:30;102971.59;;;10.51;59.13
48846;BME280;34665;51.886;5.436;2023-02-28T06:34:56;102979.00;;;10.76;58.81
48846;BME280;34665;51.886;5.436;2023-02-28T06:37:23;102978.16;;;10.76;58.89
48846;BME280;34665;51.886;5.436;2023-02-28T06:39:52;102991.84;;;10.73;59.09
48846;BME280;34665;51.886;5.436;2023-02-28T06:42:17;102993.66;;;10.72;58.85
48846;BME280;34665;51.886;5.436;2023-02-28T06:44:43;102986.34;;;10.65;58.84
48846;BME280;34665;51.886;5.436;2023-02-28T06:47:08;102993.53;;;10.64;58.75
48846;BME280;34665;51.886;5.436;2023-02-28T06:49:34;102998.03;;;10.64;59.01
48846;BME280;34665;51.886;5.436;2023-02-28T06:52:01;102997.06;;;10.55;59.29
48846;BME280;34665;51.886;5.436;2023-02-28T06:54:27;102993.69;;;10.63;59.24
48846;BME280;34665;51.886;5.436;2023-02-28T06:56:53;102999.59;;;10.56;59.39
48846;BME280;34665;51.886;5.436;2023-02-28T06:59:20;103005.38;;;10.52;59.28
48846;BME280;34665;51.886;5.436;2023-02-28T07:01:46;103005.94;;;10.55;59.10
48846;BME280;34665;51.886;5.436;2023-02-28T07:04:11;103000.59;;;10.55;59.15
48846;BME280;34665;51.886;5.436;2023-02-28T07:06:38;103000.44;;;10.57;59.26
48846;BME280;34665;51.886;5.436;2023-02-28T07:09:04;103000.59;;;10.45;59.60
48846;BME280;34665;51.886;5.436;2023-02-28T07:11:31;103004.66;;;10.59;59.07
48846;BME280;34665;51.886;5.436;2023-02-28T07:13:57;103008.47;;;10.57;59.32
48846;BME280;34665;51.886;5.436;2023-02-28T07:16:23;103017.47;;;10.66;59.39
48846;BME280;34665;51.886;5.436;2023-02-28T07:18:52;103020.28;;;10.74;59.50
48846;BME280;34665;51.886;5.436;2023-02-28T07:21:17;103016.34;;;10.78;60.12
48846;BME280;34665;51.886;5.436;2023-02-28T07:23:43;103015.47;;;10.78;60.24
48846;BME280;34665;51.886;5.436;2023-02-28T07:26:14;103025.59;;;10.84;60.17
48846;BME280;34665;51.886;5.436;2023-02-28T07:28:41;103028.75;;;10.69;59.68
48846;BME280;34665;51.886;5.436;2023-02-28T07:31:08;103024.88;;;11.01;58.90
48846;BME280;34665;51.886;5.436;2023-02-28T07:33:33;103023.13;;;11.20;58.08
48846;BME280;34665;51.886;5.436;2023-02-28T07:36:02;103028.34;;;11.31;58.06
48846;BME280;34665;51.886;5.436;2023-02-28T07:38:27;103022.19;;;11.01;58.00
48846;BME280;34665;51.886;5.436;2023-02-28T07:40:52;103032.66;;;11.42;58.05
48846;BME280;34665;51.886;5.436;2023-02-28T07:43:18;103032.47;;;11.06;57.51
48846;BME280;34665;51.886;5.436;2023-02-28T07:45:43;103036.25;;;11.23;57.05
48846;BME280;34665;51.886;5.436;2023-02-28T07:48:08;103042.47;;;11.14;55.53
48846;BME280;34665;51.886;5.436;2023-02-28T07:50:35;103034.91;;;10.89;54.68
48846;BME280;34665;51.886;5.436;2023-02-28T07:53:00;103039.94;;;11.12;54.18
48846;BME280;34665;51.886;5.436;2023-02-28T07:55:26;103044.19;;;11.05;54.70
48846;BME280;34665;51.886;5.436;2023-02-28T07:57:51;103038.16;;;10.93;54.73
48846;BME280;34665;51.886;5.436;2023-02-28T08:00:17;103039.66;;;11.05;54.51
48846;BME280;34665;51.886;5.436;2023-02-28T08:02:42;103045.88;;;10.96;53.41
48846;BME280;34665;51.886;5.436;2023-02-28T08:05:08;103039.84;;;11.42;52.66
48846;BME280;34665;51.886;5.436;2023-02-28T08:07:33;103037.97;;;11.52;51.37
48846;BME280;34665;51.886;5.436;2023-02-28T08:09:59;103047.13;;;11.59;50.22
48846;BME280;34665;51.886;5.436;2023-02-28T08:12:25;103039.50;;;11.83;50.40
48846;BME280;34665;51.886;5.436;2023-02-28T08:14:50;103048.44;;;11.73;49.81
48846;BME280;34665;51.886;5.436;2023-02-28T08:17:16;103050.47;;;11.89;49.04
48846;BME280;34665;51.886;5.436;2023-02-28T08:19:41;103052.47;;;12.15;48.98
48846;BME280;34665;51.886;5.436;2023-02-28T08:22:07;103045.72;;;12.11;48.59
48846;BME280;34665;51.886;5.436;2023-02-28T08:24:33;103048.09;;;12.14;48.13
48846;BME280;34665;51.886;5.436;2023-02-28T08:26:58;103051.72;;;12.41;47.11
48846;BME280;34665;51.886;5.436;2023-02-28T08:29:24;103050.66;;;12.70;47.40
48846;BME280;34665;51.886;5.436;2023-02-28T08:31:49;103052.44;;;12.88;47.11
48846;BME280;34665;51.886;5.436;2023-02-28T08:34:15;103059.63;;;12.43;44.58
48846;BME280;34665;51.886;5.436;2023-02-28T08:36:42;103056.75;;;12.44;44.89
48846;BME280;34665;51.886;5.436;2023-02-28T08:39:10;103063.59;;;12.57;43.17
48846;BME280;34665;51.886;5.436;2023-02-28T08:41:35;103065.56;;;12.18;42.40
48846;BME280;34665;51.886;5.436;2023-02-28T08:44:01;103054.94;;;12.45;42.16
48846;BME280;34665;51.886;5.436;2023-02-28T08:46:27;103044.16;;;12.37;41.68
48846;BME280;34665;51.886;5.436;2023-02-28T08:48:56;103048.81;;;12.53;41.90
48846;BME280;34665;51.886;5.436;2023-02-28T08:51:25;103056.00;;;12.70;41.75
48846;BME280;34665;51.886;5.436;2023-02-28T08:54:00;103053.84;;;12.74;41.10
48846;BME280;34665;51.886;5.436;2023-02-28T08:56:26;103043.97;;;12.74;40.70
48846;BME280;34665;51.886;5.436;2023-02-28T08:58:54;103043.84;;;12.40;40.80
48846;BME280;34665;51.886;5.436;2023-02-28T09:01:26;103040.00;;;12.60;41.30
48846;BME280;34665;51.886;5.436;2023-02-28T09:03:55;103053.25;;;12.80;40.38
48846;BME280;34665;51.886;5.436;2023-02-28T09:06:24;103055.94;;;12.80;39.63
48846;BME280;34665;51.886;5.436;2023-02-28T09:08:51;103050.16;;;12.75;38.30
48846;BME280;34665;51.886;5.436;2023-02-28T09:11:17;103046.50;;;14.15;37.84
48846;BME280;34665;51.886;5.436;2023-02-28T09:13:45;103054.41;;;15.32;35.84
48846;BME280;34665;51.886;5.436;2023-02-28T09:16:13;103054.72;;;16.17;34.41
48846;BME280;34665;51.886;5.436;2023-02-28T09:18:40;103057.25;;;16.42;33.08
48846;BME280;34665;51.886;5.436;2023-02-28T09:21:10;103061.03;;;17.70;32.55
48846;BME280;34665;51.886;5.436;2023-02-28T09:23:38;103058.44;;;18.13;31.74
48846;BME280;34665;51.886;5.436;2023-02-28T09:26:04;103069.84;;;18.52;31.03
48846;BME280;34665;51.886;5.436;2023-02-28T09:28:30;103070.16;;;18.20;30.34
48846;BME280;34665;51.886;5.436;2023-02-28T09:30:56;103074.56;;;18.65;30.40
48846;BME280;34665;51.886;5.436;2023-02-28T09:33:25;103073.97;;;18.70;29.38
48846;BME280;34665;51.886;5.436;2023-02-28T09:35:58;103077.53;;;19.62;27.85
48846;BME280;34665;51.886;5.436;2023-02-28T09:38:26;103079.56;;;19.54;27.33
48846;BME280;34665;51.886;5.436;2023-02-28T09:40:58;103077.34;;;19.29;27.87
48846;BME280;34665;51.886;5.436;2023-02-28T09:43:36;103077.53;;;19.69;27.29
48846;BME280;34665;51.886;5.436;2023-02-28T09:49:02;103084.84;;;20.17;26.29
48846;BME280;34665;51.886;5.436;2023-02-28T09:53:59;103082.38;;;20.76;25.63
48846;BME280;34665;51.886;5.436;2023-02-28T09:56:30;103074.41;;;21.22;25.11
48846;BME280;34665;51.886;5.436;2023-02-28T10:04:58;103072.59;;;22.39;24.09
48846;BME280;34665;51.886;5.436;2023-02-28T10:09:58;103069.09;;;22.83;23.25
48846;BME280;34665;51.886;5.436;2023-02-28T10:12:29;103072.47;;;22.27;23.42
48846;BME280;34665;51.886;5.436;2023-02-28T10:14:56;103076.88;;;23.04;23.13
48846;BME280;34665;51.886;5.436;2023-02-28T10:17:27;103071.41;;;23.79;22.85
48846;BME280;34665;51.886;5.436;2023-02-28T10:20:00;103067.56;;;23.68;21.83
48846;BME280;34665;51.886;5.436;2023-02-28T10:25:35;103073.16;;;24.23;22.28
48846;BME280;34665;51.886;5.436;2023-02-28T10:28:10;103068.91;;;24.51;21.94
48846;BME280;34665;51.886;5.436;2023-02-28T10:30:39;103061.75;;;24.26;22.39
48846;BME280;34665;51.886;5.436;2023-02-28T10:33:05;103064.94;;;23.43;22.83
48846;BME280;34665;51.886;5.436;2023-02-28T10:35:30;103062.41;;;23.23;22.57
48846;BME280;34665;51.886;5.436;2023-02-28T10:38:00;103068.88;;;24.39;22.36
48846;BME280;34665;51.886;5.436;2023-02-28T10:40:35;103066.06;;;24.69;22.17
48846;BME280;34665;51.886;5.436;2023-02-28T10:43:01;103068.22;;;24.91;22.55
48846;BME280;34665;51.886;5.436;2023-02-28T10:45:34;103067.06;;;24.20;22.01
48846;BME280;34665;51.886;5.436;2023-02-28T11:01:22;103057.38;;;25.90;21.57
48846;BME280;34665;51.886;5.436;2023-02-28T11:03:50;103054.78;;;25.54;22.28
48846;BME280;34665;51.886;5.436;2023-02-28T11:06:19;103049.31;;;25.01;21.89
48846;BME280;34665;51.886;5.436;2023-02-28T11:08:50;103049.22;;;25.78;21.55
48846;BME280;34665;51.886;5.436;2023-02-28T11:11:16;103042.50;;;26.32;20.57
48846;BME280;34665;51.886;5.436;2023-02-28T11:13:44;103047.56;;;26.40;20.18
48846;BME280;34665;51.886;5.436;2023-02-28T11:16:12;103040.91;;;26.53;20.91
48846;BME280;34665;51.886;5.436;2023-02-28T11:21:26;103048.47;;;26.63;20.51
48846;BME280;34665;51.886;5.436;2023-02-28T11:24:03;103050.28;;;27.36;19.59
48846;BME280;34665;51.886;5.436;2023-02-28T11:26:46;103044.31;;;27.67;19.20
48846;BME280;34665;51.886;5.436;2023-02-28T11:29:20;103041.53;;;28.16;20.05
48846;BME280;34665;51.886;5.436;2023-02-28T11:34:35;103042.25;;;28.82;19.04
48846;BME280;34665;51.886;5.436;2023-02-28T11:37:01;103046.13;;;29.45;18.39
48846;BME280;34665;51.886;5.436;2023-02-28T11:39:31;103041.41;;;28.82;18.67
48846;BME280;34665;51.886;5.436;2023-02-28T11:49:37;103030.56;;;28.65;18.25
48846;BME280;34665;51.886;5.436;2023-02-28T12:00:48;103035.31;;;28.74;18.73
48846;BME280;34665;51.886;5.436;2023-02-28T12:03:43;103021.66;;;28.95;18.57
48846;BME280;34665;51.886;5.436;2023-02-28T12:08:58;103030.19;;;29.78;18.04
48846;BME280;34665;51.886;5.436;2023-02-28T12:17:43;103007.56;;;29.71;18.11
48846;BME280;34665;51.886;5.436;2023-02-28T12:20:35;103010.75;;;29.26;17.33
48846;BME280;34665;51.886;5.436;2023-02-28T12:23:41;103003.38;;;28.79;18.59
48846;BME280;34665;51.886;5.436;2023-02-28T12:26:19;103005.69;;;28.97;18.36
48846;BME280;34665;51.886;5.436;2023-02-28T12:28:53;103002.25;;;28.69;18.66
48846;BME280;34665;51.886;5.436;2023-02-28T12:31:29;103003.34;;;29.27;17.65
48846;BME280;34665;51.886;5.436;2023-02-28T12:34:01;103011.97;;;29.72;17.39
48846;BME280;34665;51.886;5.436;2023-02-28T12:36:28;103009.25;;;30.13;18.75
48846;BME280;34665;51.886;5.436;2023-02-28T12:39:08;103004.81;;;29.86;18.17
48846;BME280;34665;51.886;5.436;2023-02-28T12:44:21;102994.59;;;29.61;17.27
48846;BME280;34665;51.886;5.436;2023-02-28T12:46:51;102990.78;;;29.88;18.96
48846;BME280;34665;51.886;5.436;2023-02-28T12:49:28;102994.91;;;30.11;17.05
48846;BME280;34665;51.886;5.436;2023-02-28T12:51:57;102998.16;;;30.55;17.33
48846;BME280;34665;51.886;5.436;2023-02-28T12:54:32;102985.66;;;30.83;17.65
48846;BME280;34665;51.886;5.436;2023-02-28T12:57:19;102982.56;;;30.95;17.07
48846;BME280;34665;51.886;5.436;2023-02-28T13:00:00;102989.50;;;31.43;16.19
48846;BME280;34665;51.886;5.436;2023-02-28T13:02:46;102977.38;;;31.79;16.25
48846;BME280;34665;51.886;5.436;2023-02-28T13:05:46;102989.09;;;32.54;15.66
48846;BME280;34665;51.886;5.436;2023-02-28T13:10:53;102975.00;;;31.56;15.91
48846;BME280;34665;51.886;5.436;2023-02-28T13:13:21;102972.53;;;31.15;16.17
48846;BME280;34665;51.886;5.436;2023-02-28T13:16:08;102971.50;;;31.51;16.24
48846;BME280;34665;51.886;5.436;2023-02-28T13:18:45;102966.88;;;31.36;16.05
48846;BME280;34665;51.886;5.436;2023-02-28T13:21:24;102959.09;;;31.43;15.66
48846;BME280;34665;51.886;5.436;2023-02-28T13:26:21;102955.59;;;32.26;15.96
48846;BME280;34665;51.886;5.436;2023-02-28T13:29:00;102950.94;;;31.22;17.37
48846;BME280;34665;51.886;5.436;2023-02-28T13:31:27;102953.31;;;30.89;16.94
48846;BME280;34665;51.886;5.436;2023-02-28T13:36:39;102957.16;;;31.78;15.73
48846;BME280;34665;51.886;5.436;2023-02-28T13:53:01;102931.09;;;31.89;15.96
48846;BME280;34665;51.886;5.436;2023-02-28T14:06:21;102925.88;;;31.48;16.36
48846;BME280;34665;51.886;5.436;2023-02-28T14:08:57;102920.34;;;30.47;16.58
48846;BME280;34665;51.886;5.436;2023-02-28T14:11:30;102912.06;;;30.42;16.84
48846;BME280;34665;51.886;5.436;2023-02-28T14:13:57;102919.06;;;30.85;16.56
48846;BME280;34665;51.886;5.436;2023-02-28T14:16:26;102915.31;;;31.15;17.31
48846;BME280;34665;51.886;5.436;2023-02-28T14:19:02;102914.94;;;31.67;16.33
48846;BME280;34665;51.886;5.436;2023-02-28T14:21:34;102903.34;;;31.30;16.31
48846;BME280;34665;51.886;5.436;2023-02-28T14:24:24;102905.75;;;30.97;16.58
48846;BME280;34665;51.886;5.436;2023-02-28T14:27:03;102910.97;;;31.04;15.56
48846;BME280;34665;51.886;5.436;2023-02-28T14:29:38;102914.50;;;31.20;16.46
48846;BME280;34665;51.886;5.436;2023-02-28T14:35:13;102902.91;;;30.57;16.39
48846;BME280;34665;51.886;5.436;2023-02-28T14:37:43;102912.53;;;31.15;16.12
48846;BME280;34665;51.886;5.436;2023-02-28T14:40:20;102908.63;;;30.76;16.30
48846;BME280;34665;51.886;5.436;2023-02-28T14:42:55;102905.25;;;30.19;16.88
48846;BME280;34665;51.886;5.436;2023-02-28T14:45:22;102904.97;;;30.15;18.01
48846;BME280;34665;51.886;5.436;2023-02-28T14:47:49;102908.31;;;29.45;18.14
48846;BME280;34665;51.886;5.436;2023-02-28T14:50:26;102903.09;;;29.59;16.85
48846;BME280;34665;51.886;5.436;2023-02-28T14:52:53;102899.22;;;30.01;17.22
48846;BME280;34665;51.886;5.436;2023-02-28T14:55:25;102892.31;;;29.88;17.88
48846;BME280;34665;51.886;5.436;2023-02-28T14:57:54;102904.75;;;29.60;17.02
48846;BME280;34665;51.886;5.436;2023-02-28T15:00:28;102902.22;;;29.27;16.53
48846;BME280;34665;51.886;5.436;2023-02-28T15:02:59;102897.53;;;29.38;17.46
48846;BME280;34665;51.886;5.436;2023-02-28T15:05:34;102902.25;;;29.43;16.59
48846;BME280;34665;51.886;5.436;2023-02-28T15:08:06;102897.25;;;29.24;17.16
48846;BME280;34665;51.886;5.436;2023-02-28T15:10:36;102900.00;;;29.09;17.14